Aviation Digital Data Service (ADDS)

Output produced by TAFs form (0553 UTC 14 February 2016)
found at http://www.aviationweather.gov/adds/tafs/
 
KALB 140537Z 1406/1506 32014G22KT P6SM FEW040 
     FM141200 31010G16KT P6SM FEW035 
     FM141500 31011KT P6SM SKC 
     FM141800 31009KT P6SM SKC 
     FM150000 31003KT P6SM SKC